Search for airport 
image banner adimage banner adimage banner ad
image banner ad

CA43 - Barton Memorial Hospital

Located in South Lake Tahoe, United States

ICAO - CA43, IATA -

Data provided by Airmate  

General information

Coordinates: N38°54'41" W119°59'49"
Elevation is 6298 feet MSL.
Magnetic variation is 16° East
View others Airports in California

Operational data

Special qualification required
Current time UTC:
Current local time:
Weather at : KTVL - Lake Tahoe ( 2 km )
METAR: KTVL 210153Z AUTO 00000KT 10SM CLR 15/M02 A3031 RMK AO2 SLP241 T01501017
TAF: KTVL 202320Z 2100/2124 06010G18KT P6SM SKC FM210100 VRB04KT P6SM SKC FM212100 04008KT P6SM SKC
View NOTAMs / SUP AIP / TFR affecting this airport [VIEW]
Communications frequencies: [VIEW]

Runways:

Airport contact information

Address: South Lake Tahoe United States

Satellite view of CA43